createdAt,value
2018-12-07T00:03:39.041Z,10.756836
2018-12-07T00:09:01.711Z,10.776978
2018-12-07T00:14:24.594Z,10.746765
2018-12-07T00:19:47.983Z,10.716553
2018-12-07T00:25:10.278Z,10.696411
2018-12-07T00:30:34.218Z,10.656128
2018-12-07T00:35:56.929Z,10.67627
2018-12-07T00:41:19.563Z,10.67627
2018-12-07T00:46:43.089Z,10.625916
2018-12-07T00:52:05.963Z,10.646057
2018-12-07T00:57:28.923Z,10.615845
2018-12-07T01:02:51.711Z,10.575562
2018-12-07T01:08:14.355Z,10.565491
2018-12-07T01:13:37.831Z,10.515137
2018-12-07T01:19:00.501Z,10.545349
2018-12-07T01:24:23.157Z,10.515137
2018-12-07T01:29:45.901Z,10.505066
2018-12-07T01:35:09.469Z,10.474854
2018-12-07T01:40:32.226Z,10.43457
2018-12-07T01:45:54.940Z,10.43457
2018-12-07T01:51:17.570Z,10.394287
2018-12-07T01:56:40.440Z,10.394287
2018-12-07T02:02:03.477Z,10.364075
2018-12-07T02:07:26.191Z,10.364075
2018-12-07T02:12:49.067Z,10.354004
2018-12-07T02:18:12.334Z,10.364075
2018-12-07T02:23:35.060Z,10.354004
2018-12-07T02:28:57.759Z,10.354004
2018-12-07T02:34:20.639Z,10.343933
2018-12-07T02:39:43.531Z,10.343933
2018-12-07T02:45:06.627Z,10.343933
2018-12-07T02:50:29.342Z,10.343933
2018-12-07T02:55:52.563Z,10.364075
2018-12-07T03:01:16.036Z,10.384216
2018-12-07T03:06:39.094Z,10.364075
2018-12-07T03:12:02.095Z,10.323792
2018-12-07T03:17:25.118Z,10.313721
2018-12-07T03:22:47.984Z,10.313721
2018-12-07T03:28:10.599Z,10.283508
2018-12-07T03:33:33.362Z,10.283508
2018-12-07T03:38:56.242Z,10.253296
2018-12-07T03:44:18.976Z,10.253296
2018-12-07T03:49:41.701Z,10.263367
2018-12-07T03:55:04.378Z,10.263367
2018-12-07T04:00:27.511Z,10.263367
2018-12-07T04:05:50.182Z,10.263367
2018-12-07T04:11:12.911Z,10.263367
2018-12-07T04:16:35.778Z,10.283508
2018-12-07T04:21:59.048Z,10.293579
2018-12-07T04:27:21.886Z,10.313721
2018-12-07T04:32:44.733Z,10.323792
2018-12-07T04:38:07.550Z,10.343933
2018-12-07T04:43:30.271Z,10.323792
2018-12-07T04:48:53.084Z,10.323792
2018-12-07T04:54:15.984Z,10.364075
2018-12-07T04:59:38.757Z,10.354004
2018-12-07T05:05:01.470Z,10.364075
2018-12-07T05:10:25.109Z,10.364075
2018-12-07T05:15:48.508Z,10.364075
2018-12-07T05:21:11.184Z,10.364075
2018-12-07T05:26:34.190Z,10.354004
2018-12-07T05:31:56.887Z,10.354004
2018-12-07T05:37:19.613Z,10.343933
2018-12-07T05:42:42.704Z,10.343933
2018-12-07T05:48:05.585Z,10.343933
2018-12-07T05:53:28.403Z,10.354004
2018-12-07T05:59:00.193Z,10.354004
2018-12-07T06:04:33.656Z,10.343933
2018-12-07T06:09:56.603Z,10.313721
2018-12-07T06:15:19.545Z,10.323792
2018-12-07T06:20:42.224Z,10.343933
2018-12-07T06:26:04.886Z,10.323792
2018-12-07T06:31:27.659Z,10.323792
2018-12-07T06:36:50.428Z,10.313721
2018-12-07T06:42:13.206Z,10.323792
2018-12-07T06:47:36.113Z,10.354004
2018-12-07T06:53:09.663Z,10.364075
2018-12-07T06:58:32.839Z,10.394287
2018-12-07T07:04:05.152Z,10.4245
2018-12-07T07:15:35.444Z,10.354004
2018-12-07T07:21:08.570Z,10.4245
2018-12-07T07:26:41.498Z,10.444641
2018-12-07T07:32:14.704Z,10.464783
2018-12-07T07:37:38.490Z,10.464783
2018-12-07T07:43:10.830Z,10.494995
2018-12-07T07:48:33.619Z,10.505066
2018-12-07T07:53:56.338Z,10.535278
2018-12-07T07:59:18.977Z,10.595703
2018-12-07T08:04:41.702Z,10.575562
2018-12-07T08:10:04.482Z,10.565491
2018-12-07T08:15:38.283Z,10.545349
2018-12-07T08:21:01.468Z,10.545349
2018-12-07T08:26:24.214Z,10.515137
2018-12-07T08:31:56.686Z,10.595703
2018-12-07T08:37:19.739Z,10.565491
2018-12-07T08:42:53.202Z,10.545349
2018-12-07T08:48:26.944Z,10.535278
2018-12-07T08:53:59.205Z,10.565491
2018-12-07T08:59:22.484Z,10.545349
2018-12-07T09:04:56.455Z,10.545349
2018-12-07T09:10:21.925Z,10.565491
2018-12-07T09:15:53.788Z,10.515137
2018-12-07T09:21:16.817Z,10.535278
2018-12-07T09:26:50.481Z,10.505066
2018-12-07T09:38:21.764Z,10.535278
2018-12-07T09:43:54.476Z,10.515137
2018-12-07T09:49:17.397Z,10.505066
2018-12-07T09:54:40.285Z,10.474854
2018-12-07T10:00:14.970Z,10.474854
2018-12-07T10:05:46.758Z,10.494995
2018-12-07T10:11:20.424Z,10.494995
2018-12-07T10:16:43.682Z,10.474854
2018-12-07T10:22:17.836Z,10.474854
2018-12-07T10:34:13.498Z,10.444641
2018-12-07T10:58:14.481Z,10.4245
2018-12-07T11:03:46.506Z,10.444641
2018-12-07T11:09:18.913Z,10.43457
2018-12-07T11:14:51.283Z,10.464783
2018-12-07T11:20:24.447Z,10.474854
2018-12-07T11:25:57.958Z,10.505066
2018-12-07T11:31:30.023Z,10.474854
2018-12-07T11:37:03.016Z,10.474854
2018-12-07T11:42:25.983Z,10.505066
2018-12-07T11:47:48.883Z,10.545349
2018-12-07T11:53:11.686Z,10.565491
2018-12-07T11:58:34.329Z,10.545349
2018-12-07T12:03:57.312Z,10.575562
2018-12-07T12:09:20.194Z,10.535278
2018-12-07T12:14:43.079Z,10.545349
2018-12-07T12:20:15.581Z,10.575562
2018-12-07T12:25:38.458Z,10.545349
2018-12-07T12:31:01.317Z,10.565491
2018-12-07T12:36:25.074Z,10.595703
2018-12-07T12:41:48.006Z,10.68634
2018-12-07T12:47:11.123Z,10.696411
2018-12-07T12:52:33.859Z,10.746765
2018-12-07T12:57:56.561Z,10.746765
2018-12-07T13:03:19.210Z,10.797119
2018-12-07T13:08:42.043Z,10.776978
2018-12-07T13:14:05.047Z,10.696411
2018-12-07T13:19:28.194Z,10.756836
2018-12-07T13:24:50.857Z,10.827332
2018-12-07T13:30:13.815Z,10.776978
2018-12-07T13:35:36.538Z,10.797119
2018-12-07T13:40:59.547Z,10.746765
2018-12-07T13:46:23.565Z,10.80719
2018-12-07T13:51:46.418Z,10.857544
2018-12-07T13:57:09.161Z,10.837402
2018-12-07T14:02:32.233Z,10.837402
2018-12-07T14:07:54.869Z,10.756836
2018-12-07T14:13:18.004Z,10.746765
2018-12-07T14:18:41.123Z,10.837402
2018-12-07T14:24:03.584Z,10.837402
2018-12-07T14:29:26.241Z,10.797119
2018-12-07T14:34:49.155Z,10.726624
2018-12-07T14:40:11.727Z,10.615845
2018-12-07T14:45:34.751Z,10.444641
2018-12-07T14:50:57.395Z,10.323792
2018-12-07T14:56:22.744Z,10.162659
2018-12-07T15:01:45.452Z,10.061951
2018-12-07T15:07:08.146Z,10.011597
2018-12-07T15:12:30.943Z,9.991455
2018-12-07T15:17:53.665Z,9.991455
2018-12-07T15:23:16.455Z,9.991455
2018-12-07T15:28:39.518Z,9.961243
2018-12-07T15:34:12.547Z,10.021667
2018-12-07T15:39:44.439Z,9.951172
2018-12-07T15:45:17.039Z,9.981384
2018-12-07T15:50:39.966Z,9.961243
2018-12-07T15:56:02.614Z,9.981384
2018-12-07T16:01:25.371Z,9.981384
2018-12-07T16:06:48.019Z,9.93103
2018-12-07T16:12:10.878Z,10.061951
2018-12-07T16:17:33.625Z,10.072021
2018-12-07T16:22:56.396Z,9.951172
2018-12-07T16:28:19.294Z,9.951172
2018-12-07T16:33:50.983Z,9.951172
2018-12-07T16:39:23.075Z,9.880676
2018-12-07T16:44:56.727Z,9.830322
2018-12-07T16:50:28.889Z,9.769897
2018-12-07T16:56:01.557Z,9.67926
2018-12-07T17:01:34.424Z,9.628906
2018-12-07T17:07:09.095Z,9.598694
2018-12-07T17:12:40.901Z,9.598694
2018-12-07T17:18:14.407Z,9.528198
2018-12-07T17:23:47.341Z,9.54834
2018-12-07T17:29:10.306Z,9.497986
2018-12-07T17:34:33.174Z,9.477844
2018-12-07T17:39:56.125Z,9.447632
2018-12-07T17:45:28.590Z,9.417419
2018-12-07T17:50:52.377Z,9.417419
2018-12-07T17:56:15.089Z,9.377136
2018-12-07T18:07:47.096Z,9.346924
2018-12-07T18:13:22.728Z,9.377136
2018-12-07T18:24:59.294Z,9.346924
2018-12-07T18:30:31.157Z,9.336853
2018-12-07T18:35:54.476Z,7.111206
2018-12-07T18:41:17.364Z,6.859436
2018-12-07T18:46:40.673Z,6.929932
2018-12-07T18:52:03.319Z,7.04071
2018-12-07T18:57:26.056Z,6.990356
2018-12-07T19:02:58.777Z,6.970215
2018-12-07T19:08:31.981Z,6.859436
2018-12-07T19:14:05.849Z,6.859436
2018-12-07T19:19:28.949Z,6.708374
2018-12-07T19:24:52.014Z,6.577454
2018-12-07T19:30:14.655Z,6.567383
2018-12-07T19:35:36.959Z,6.53717
2018-12-07T19:41:00.230Z,6.426392
2018-12-07T19:46:23.011Z,6.476746
2018-12-07T19:51:47.142Z,6.355896
2018-12-07T19:57:20.139Z,6.376038
2018-12-07T20:02:41.848Z,6.265259
2018-12-07T20:08:04.701Z,6.104126
2018-12-07T20:13:36.693Z,6.104126
2018-12-07T20:19:01.993Z,6.104126
2018-12-07T20:24:24.915Z,6.063843
2018-12-07T20:29:58.127Z,5.872498
2018-12-07T20:41:12.525Z,5.922852
2018-12-07T20:46:36.758Z,5.953064
2018-12-07T20:51:59.201Z,5.751648
2018-12-07T20:57:21.842Z,5.963135
2018-12-07T21:02:44.552Z,5.90271
2018-12-07T21:08:08.863Z,6.114197
2018-12-07T21:13:30.689Z,6.02356
2018-12-07T21:18:54.020Z,6.144409
2018-12-07T21:24:16.988Z,6.03363
2018-12-07T21:29:39.807Z,6.063843
2018-12-07T21:35:02.783Z,6.295471
2018-12-07T21:40:25.447Z,6.214905
2018-12-07T21:45:48.783Z,6.013489
2018-12-07T21:51:11.427Z,5.932922
2018-12-07T21:56:35.988Z,5.78186
2018-12-07T22:01:57.803Z,5.78186
2018-12-07T22:07:20.428Z,5.590515
2018-12-07T22:12:43.089Z,5.419312
2018-12-07T22:18:06.585Z,5.379028
2018-12-07T22:23:29.605Z,5.671082
2018-12-07T22:28:52.404Z,5.932922
2018-12-07T22:34:14.888Z,5.932922
2018-12-07T22:39:37.581Z,5.953064
2018-12-07T22:45:00.268Z,5.77179
2018-12-07T22:50:25.001Z,5.661011
2018-12-07T22:55:47.720Z,5.661011
2018-12-07T23:01:10.427Z,5.590515
2018-12-07T23:06:33.808Z,5.560303
2018-12-07T23:11:56.598Z,5.449524
2018-12-07T23:17:19.334Z,5.439453
2018-12-07T23:22:42.046Z,5.52002
2018-12-07T23:28:04.922Z,5.691223
2018-12-07T23:33:27.581Z,5.691223
2018-12-07T23:38:50.285Z,5.691223
2018-12-07T23:44:12.966Z,5.65094
2018-12-07T23:49:35.815Z,5.479736
2018-12-07T23:54:58.504Z,5.26825
